createdAt,value
2023-04-14T00:02:11.878Z,99321.06
2023-04-14T00:04:39.046Z,99305.75
2023-04-14T00:07:06.427Z,99323.78
2023-04-14T00:09:35.985Z,99314.06
2023-04-14T00:12:02.951Z,99317.50
2023-04-14T00:14:29.961Z,99323.38
2023-04-14T00:16:56.966Z,99311.81
2023-04-14T00:19:23.897Z,99331.69
2023-04-14T00:21:53.510Z,99326.34
2023-04-14T00:24:20.396Z,99328.09
2023-04-14T00:26:48.328Z,99327.94
2023-04-14T00:29:15.422Z,99322.78
2023-04-14T00:31:42.467Z,99338.75
2023-04-14T00:34:09.550Z,99336.47
2023-04-14T00:36:37.110Z,99333.16
2023-04-14T00:39:04.907Z,99336.97
2023-04-14T00:41:35.479Z,99341.66
2023-04-14T00:44:03.004Z,99352.47
2023-04-14T00:46:30.338Z,99353.69
2023-04-14T00:48:57.909Z,99346.81
2023-04-14T00:51:25.185Z,99340.56
2023-04-14T00:53:53.719Z,99351.31
2023-04-14T00:56:21.369Z,99352.31
2023-04-14T00:58:52.222Z,99357.34
2023-04-14T01:01:19.277Z,99346.88
2023-04-14T01:03:46.900Z,99357.44
2023-04-14T01:06:14.068Z,99359.09
2023-04-14T01:08:43.396Z,99362.94
2023-04-14T01:11:20.036Z,99364.50
2023-04-14T01:14:03.847Z,99371.84
2023-04-14T01:16:36.167Z,99371.56
2023-04-14T01:19:15.611Z,99374.44
2023-04-14T01:21:46.686Z,99374.31
2023-04-14T01:24:45.553Z,99375.94
2023-04-14T01:27:31.445Z,99378.44
2023-04-14T01:30:17.757Z,99382.31
2023-04-14T01:32:46.198Z,99385.69
2023-04-14T01:35:21.040Z,99394.31
2023-04-14T01:37:50.000Z,99389.72
2023-04-14T01:40:17.779Z,99385.09
2023-04-14T01:42:47.966Z,99389.41
2023-04-14T01:45:27.352Z,99394.75
2023-04-14T01:47:55.509Z,99390.78
2023-04-14T01:50:25.606Z,99400.97
2023-04-14T01:52:54.568Z,99411.78
2023-04-14T01:55:23.997Z,99397.34
2023-04-14T01:57:53.453Z,99397.22
2023-04-14T02:00:21.533Z,99409.59
2023-04-14T02:02:52.814Z,99418.47
2023-04-14T02:05:20.614Z,99422.84
2023-04-14T02:07:48.805Z,99424.19
2023-04-14T02:10:20.795Z,99438.13
2023-04-14T02:12:49.755Z,99434.97
2023-04-14T02:15:18.802Z,99446.16
2023-04-14T02:17:51.833Z,99441.81
2023-04-14T02:20:21.327Z,99437.03
2023-04-14T02:22:48.448Z,99441.06
2023-04-14T02:25:15.448Z,99451.53
2023-04-14T02:27:52.364Z,99457.69
2023-04-14T02:30:22.935Z,99451.75
2023-04-14T02:32:54.585Z,99461.72
2023-04-14T02:35:44.164Z,99466.72
2023-04-14T02:38:18.769Z,99466.06
2023-04-14T02:40:46.854Z,99460.91
2023-04-14T02:43:20.837Z,99458.78
2023-04-14T02:45:50.980Z,99460.59
2023-04-14T02:48:18.943Z,99466.75
2023-04-14T02:50:49.486Z,99458.78
2023-04-14T02:53:22.441Z,99451.66
2023-04-14T02:55:54.772Z,99475.91
2023-04-14T02:58:22.319Z,99477.56
2023-04-14T03:00:50.342Z,99480.78
2023-04-14T03:03:18.831Z,99499.84
2023-04-14T03:05:47.711Z,99493.88
2023-04-14T03:08:16.863Z,99498.00
2023-04-14T03:10:48.878Z,99498.34
2023-04-14T03:13:18.868Z,99501.66
2023-04-14T03:15:59.739Z,99509.63
2023-04-14T03:18:31.328Z,99508.63
2023-04-14T03:21:00.865Z,99506.31
2023-04-14T03:23:29.143Z,99508.97
2023-04-14T03:26:00.613Z,99506.00
2023-04-14T03:28:30.553Z,99514.28
2023-04-14T03:31:01.425Z,99518.63
2023-04-14T03:33:36.906Z,99518.94
2023-04-14T03:36:04.493Z,99523.41
2023-04-14T03:38:33.553Z,99519.13
2023-04-14T03:41:05.647Z,99510.97
2023-04-14T03:43:33.645Z,99518.59
2023-04-14T03:46:10.843Z,99516.63
2023-04-14T03:48:49.892Z,99514.97
2023-04-14T03:51:17.678Z,99520.44
2023-04-14T03:53:49.445Z,99523.94
2023-04-14T03:56:18.308Z,99529.25
2023-04-14T03:58:47.954Z,99520.28
2023-04-14T04:01:18.668Z,99519.63
2023-04-14T04:03:46.693Z,99527.09
2023-04-14T04:06:14.082Z,99533.25
2023-04-14T04:08:41.776Z,99537.22
2023-04-14T04:11:09.874Z,99534.75
2023-04-14T04:13:40.073Z,99532.59
2023-04-14T04:16:07.720Z,99538.06
2023-04-14T04:18:38.677Z,99536.56
2023-04-14T04:21:07.804Z,99532.41
2023-04-14T04:23:37.637Z,99532.72
2023-04-14T04:26:04.690Z,99545.16
2023-04-14T04:28:39.110Z,99550.81
2023-04-14T04:31:06.823Z,99557.47
2023-04-14T04:33:34.647Z,99556.09
2023-04-14T04:36:03.167Z,99546.13
2023-04-14T04:38:36.198Z,99550.97
2023-04-14T04:41:03.490Z,99546.63
2023-04-14T04:43:34.606Z,99555.78
2023-04-14T04:46:04.698Z,99543.31
2023-04-14T04:48:31.791Z,99544.28
2023-04-14T04:50:58.778Z,99545.28
2023-04-14T04:53:26.015Z,99543.13
2023-04-14T04:55:53.406Z,99547.22
2023-04-14T04:58:23.805Z,99554.66
2023-04-14T05:00:51.237Z,99550.06
2023-04-14T05:03:51.776Z,99549.34
2023-04-14T05:06:18.778Z,99563.34
2023-04-14T05:09:04.979Z,99576.09
2023-04-14T05:11:32.993Z,99571.09
2023-04-14T05:13:59.876Z,99558.44
2023-04-14T05:16:28.330Z,99567.56
2023-04-14T05:18:55.535Z,99563.88
2023-04-14T05:21:22.553Z,99561.88
2023-04-14T05:23:50.063Z,99559.91
2023-04-14T05:28:49.248Z,99569.50
2023-04-14T05:31:16.585Z,99559.63
2023-04-14T05:33:49.204Z,99557.72
2023-04-14T05:36:16.475Z,99569.56
2023-04-14T05:38:43.548Z,99568.53
2023-04-14T05:41:16.639Z,99567.63
2023-04-14T05:43:43.738Z,99577.75
2023-04-14T05:46:11.069Z,99564.31
2023-04-14T05:48:38.348Z,99582.81
2023-04-14T05:51:16.514Z,99579.34
2023-04-14T05:53:53.993Z,99558.16
2023-04-14T05:56:21.142Z,99577.84
2023-04-14T05:58:48.312Z,99561.06
2023-04-14T06:01:15.683Z,99583.41
2023-04-14T06:03:42.986Z,99588.56
2023-04-14T06:06:10.230Z,99583.81
2023-04-14T06:08:39.880Z,99572.97
2023-04-14T06:11:06.897Z,99585.03
2023-04-14T06:13:35.692Z,99587.31
2023-04-14T06:16:03.657Z,99591.19
2023-04-14T06:18:30.874Z,99585.09
2023-04-14T06:20:57.894Z,99601.78
2023-04-14T06:23:26.884Z,99582.53
2023-04-14T06:25:55.200Z,99608.59
2023-04-14T06:28:24.332Z,99585.84
2023-04-14T06:30:51.503Z,99597.72
2023-04-14T06:33:18.732Z,99589.59
2023-04-14T06:35:45.693Z,99588.72
2023-04-14T06:38:14.135Z,99591.91
2023-04-14T06:40:41.299Z,99599.41
2023-04-14T06:43:11.138Z,99600.16
2023-04-14T06:45:38.322Z,99592.06
2023-04-14T06:48:05.920Z,99605.09
2023-04-14T06:50:33.029Z,99602.41
2023-04-14T06:53:00.309Z,99590.91
2023-04-14T06:55:27.382Z,99622.09
2023-04-14T06:57:54.556Z,99612.53
2023-04-14T07:00:22.043Z,99606.72
2023-04-14T07:02:49.291Z,99613.81
2023-04-14T07:05:17.491Z,99619.00
2023-04-14T07:07:44.502Z,99610.56
2023-04-14T07:10:12.739Z,99618.13
2023-04-14T07:12:58.946Z,99626.66
2023-04-14T07:15:26.308Z,99627.16
2023-04-14T07:17:53.610Z,99632.56
2023-04-14T07:20:20.756Z,99617.66
2023-04-14T07:22:47.952Z,99628.69
2023-04-14T07:25:15.048Z,99630.56
2023-04-14T07:27:49.898Z,99619.75
2023-04-14T07:30:30.285Z,99620.56
2023-04-14T07:32:57.867Z,99614.34
2023-04-14T07:35:25.996Z,99618.38
2023-04-14T07:37:53.110Z,99635.69
2023-04-14T07:40:20.499Z,99631.09
2023-04-14T07:42:49.430Z,99629.72
2023-04-14T07:45:19.129Z,99623.84
2023-04-14T07:47:46.379Z,99622.06
2023-04-14T07:50:13.445Z,99619.59
2023-04-14T07:52:40.570Z,99613.38
2023-04-14T07:55:07.997Z,99614.88
2023-04-14T07:57:35.540Z,99614.59
2023-04-14T08:00:02.699Z,99623.94
2023-04-14T08:02:40.968Z,99628.31
2023-04-14T08:05:09.613Z,99614.94
2023-04-14T08:07:37.110Z,99623.03
2023-04-14T08:10:04.317Z,99620.34
2023-04-14T08:12:32.160Z,99606.13
2023-04-14T08:14:59.319Z,99610.88
2023-04-14T08:17:27.420Z,99598.50
2023-04-14T08:19:54.444Z,99593.69
2023-04-14T08:22:21.706Z,99612.00
2023-04-14T08:24:52.002Z,99613.56
2023-04-14T08:27:20.066Z,99631.75
2023-04-14T08:29:51.445Z,99632.22
2023-04-14T08:32:18.549Z,99634.94
2023-04-14T08:35:37.567Z,99640.22
2023-04-14T08:37:32.838Z,99618.09
2023-04-14T08:40:00.756Z,99617.31
2023-04-14T08:42:27.853Z,99625.44
2023-04-14T08:45:17.036Z,99628.19
2023-04-14T08:47:46.095Z,99615.16
2023-04-14T08:50:18.894Z,99616.03
2023-04-14T08:52:46.530Z,99625.75
2023-04-14T08:55:14.285Z,99611.69
2023-04-14T08:57:42.725Z,99611.59
2023-04-14T09:00:10.770Z,99616.53
2023-04-14T09:02:40.740Z,99627.25
2023-04-14T09:05:09.057Z,99620.03
2023-04-14T09:07:36.904Z,99612.19
2023-04-14T09:10:04.749Z,99626.84
2023-04-14T09:12:32.708Z,99632.38
2023-04-14T09:14:59.684Z,99613.94
2023-04-14T09:17:28.078Z,99630.84
2023-04-14T09:20:34.707Z,99631.41
2023-04-14T09:22:43.485Z,99599.19
2023-04-14T09:25:10.994Z,99637.56
2023-04-14T09:27:42.903Z,99625.53
2023-04-14T09:30:29.220Z,99620.09
2023-04-14T09:32:57.139Z,99627.94
2023-04-14T09:35:43.541Z,99615.28
2023-04-14T09:38:11.090Z,99623.88
2023-04-14T09:40:39.305Z,99631.81
2023-04-14T09:43:06.779Z,99648.16
2023-04-14T09:45:44.876Z,99648.44
2023-04-14T09:48:13.654Z,99636.00
2023-04-14T09:51:10.095Z,99637.66
2023-04-14T09:53:39.564Z,99637.47
2023-04-14T09:56:13.651Z,99643.94
2023-04-14T09:58:43.049Z,99661.41
2023-04-14T10:01:17.581Z,99664.94
2023-04-14T10:03:47.149Z,99652.78
2023-04-14T10:06:24.146Z,99659.66
2023-04-14T10:08:53.254Z,99666.22
2023-04-14T10:11:26.163Z,99668.28
2023-04-14T10:14:05.349Z,99662.63
2023-04-14T10:16:34.092Z,99673.94
2023-04-14T10:19:02.313Z,99674.59
2023-04-14T10:21:29.870Z,99663.06
2023-04-14T10:23:59.218Z,99682.34
2023-04-14T10:26:26.765Z,99659.03
2023-04-14T10:28:57.856Z,99662.84
2023-04-14T10:31:47.989Z,99670.53
2023-04-14T10:34:18.315Z,99655.88
2023-04-14T10:37:14.161Z,99675.25
2023-04-14T10:39:44.900Z,99671.56
2023-04-14T10:42:11.927Z,99671.06
2023-04-14T10:44:39.478Z,99671.41
2023-04-14T10:47:09.353Z,99667.31
2023-04-14T10:50:00.321Z,99655.81
2023-04-14T10:52:30.250Z,99663.34
2023-04-14T10:55:01.410Z,99675.31
2023-04-14T10:57:29.811Z,99665.13
2023-04-14T10:59:59.048Z,99661.25
2023-04-14T11:02:55.440Z,99672.53
2023-04-14T11:05:23.347Z,99670.66
2023-04-14T11:07:56.148Z,99674.75
2023-04-14T11:10:28.330Z,99665.84
2023-04-14T11:13:17.742Z,99663.13
2023-04-14T11:15:49.177Z,99675.53
2023-04-14T11:18:21.462Z,99677.41
2023-04-14T11:20:52.243Z,99677.47
2023-04-14T11:23:27.167Z,99674.19
2023-04-14T11:25:54.602Z,99682.06
2023-04-14T11:28:50.423Z,99665.44
2023-04-14T11:31:36.742Z,99667.63
2023-04-14T11:34:23.372Z,99684.69
2023-04-14T11:37:09.136Z,99669.91
2023-04-14T11:39:36.673Z,99687.38
2023-04-14T11:42:04.717Z,99682.44
2023-04-14T11:44:32.020Z,99673.53
2023-04-14T11:46:59.000Z,99678.81
2023-04-14T11:49:40.300Z,99666.81
2023-04-14T11:52:08.341Z,99666.56
2023-04-14T11:54:37.271Z,99667.91
2023-04-14T11:57:22.737Z,99683.72
2023-04-14T12:00:08.750Z,99675.56
2023-04-14T12:02:36.329Z,99670.34
2023-04-14T12:05:04.052Z,99666.81
2023-04-14T12:07:34.020Z,99675.25
2023-04-14T12:10:07.619Z,99657.13
2023-04-14T12:12:34.540Z,99667.16
2023-04-14T12:15:01.965Z,99675.75
2023-04-14T12:17:31.337Z,99667.81
2023-04-14T12:19:58.401Z,99677.47
2023-04-14T12:22:29.554Z,99669.28
2023-04-14T12:24:57.276Z,99662.47
2023-04-14T12:27:26.712Z,99669.03
2023-04-14T12:29:53.784Z,99667.03
2023-04-14T12:32:40.923Z,99661.28
2023-04-14T12:35:26.824Z,99666.31
2023-04-14T12:38:30.646Z,99656.84
2023-04-14T12:41:25.530Z,99664.13
2023-04-14T12:44:21.369Z,99657.66
2023-04-14T12:47:07.362Z,99661.38
2023-04-14T12:49:36.854Z,99663.38
2023-04-14T12:52:05.810Z,99664.03
2023-04-14T12:54:55.297Z,99668.28
2023-04-14T12:57:22.622Z,99661.78
2023-04-14T12:59:49.713Z,99652.13
2023-04-14T13:02:36.569Z,99656.03
2023-04-14T13:05:05.219Z,99661.63
2023-04-14T13:07:33.180Z,99662.34
2023-04-14T13:10:02.417Z,99659.56
2023-04-14T13:12:31.200Z,99673.38
2023-04-14T13:14:58.390Z,99670.09
2023-04-14T13:17:26.172Z,99665.72
2023-04-14T13:19:54.210Z,99667.31
2023-04-14T13:22:21.325Z,99680.72
2023-04-14T13:24:50.039Z,99674.09
2023-04-14T13:27:38.701Z,99675.28
2023-04-14T13:30:06.611Z,99662.88
2023-04-14T13:32:34.448Z,99673.00
2023-04-14T13:35:01.963Z,99671.97
2023-04-14T13:37:30.127Z,99659.28
2023-04-14T13:40:21.920Z,99660.03
2023-04-14T13:43:09.078Z,99675.22
2023-04-14T13:45:40.034Z,99671.13
2023-04-14T13:48:08.175Z,99663.75
2023-04-14T13:50:54.565Z,99666.53
2023-04-14T13:53:40.105Z,99687.88
2023-04-14T13:56:11.039Z,99682.91
2023-04-14T13:58:38.586Z,99671.69
2023-04-14T14:01:15.028Z,99678.22
2023-04-14T14:03:42.298Z,99685.81
2023-04-14T14:06:09.788Z,99688.75
2023-04-14T14:08:38.086Z,99686.16
2023-04-14T14:11:11.706Z,99681.59
2023-04-14T14:13:40.939Z,99694.88
2023-04-14T14:19:00.827Z,99691.34
2023-04-14T14:21:46.823Z,99695.03
2023-04-14T14:24:32.633Z,99695.97
2023-04-14T14:26:59.747Z,99700.03
2023-04-14T14:29:27.373Z,99695.59
2023-04-14T14:31:54.464Z,99691.06
2023-04-14T14:34:21.483Z,99714.56
2023-04-14T14:36:48.574Z,99709.91
2023-04-14T14:39:37.150Z,99699.50
2023-04-14T14:42:04.180Z,99705.25
2023-04-14T14:44:34.422Z,99708.16
2023-04-14T14:47:02.072Z,99723.84
2023-04-14T14:49:29.229Z,99735.84
2023-04-14T14:51:56.385Z,99731.84
2023-04-14T14:54:26.149Z,99738.41
2023-04-14T14:56:53.074Z,99733.13
2023-04-14T14:59:24.430Z,99730.28
2023-04-14T15:01:53.564Z,99711.41
2023-04-14T15:04:39.775Z,99738.34
2023-04-14T15:07:07.784Z,99731.03
2023-04-14T15:09:34.681Z,99733.94
2023-04-14T15:12:04.761Z,99747.81
2023-04-14T15:14:32.701Z,99748.81
2023-04-14T15:16:59.722Z,99748.13
2023-04-14T15:19:31.940Z,99753.16
2023-04-14T15:22:21.790Z,99755.19
2023-04-14T15:24:48.860Z,99755.44
2023-04-14T15:27:18.602Z,99766.00
2023-04-14T15:29:45.964Z,99757.25
2023-04-14T15:32:12.950Z,99778.44
2023-04-14T15:34:40.052Z,99759.69
2023-04-14T15:37:09.657Z,99771.06
2023-04-14T15:39:55.344Z,99787.28
2023-04-14T15:42:41.283Z,99766.81
2023-04-14T15:45:08.939Z,99776.53
2023-04-14T15:47:35.882Z,99774.00
2023-04-14T15:50:09.888Z,99771.34
2023-04-14T15:52:41.007Z,99782.47
2023-04-14T15:55:09.569Z,99796.53
2023-04-14T15:57:55.208Z,99801.22
2023-04-14T16:00:40.642Z,99804.31
2023-04-14T16:03:07.891Z,99808.84
2023-04-14T16:05:53.311Z,99818.09
2023-04-14T16:08:20.384Z,99811.44
2023-04-14T16:10:57.448Z,99821.34
2023-04-14T16:13:24.541Z,99811.41
2023-04-14T16:15:51.617Z,99815.44
2023-04-14T16:18:18.746Z,99809.53
2023-04-14T16:20:46.741Z,99837.19
2023-04-14T16:23:32.122Z,99816.47
2023-04-14T16:26:00.120Z,99835.63
2023-04-14T16:28:46.259Z,99844.41
2023-04-14T16:31:14.483Z,99857.91
2023-04-14T16:34:00.418Z,99861.94
2023-04-14T16:36:28.000Z,99853.78
2023-04-14T16:38:58.130Z,99870.16
2023-04-14T16:41:25.229Z,99863.44
2023-04-14T16:43:52.467Z,99869.44
2023-04-14T16:46:19.421Z,99854.03
2023-04-14T16:49:05.611Z,99859.88
2023-04-14T16:51:33.137Z,99879.09
2023-04-14T16:54:00.719Z,99883.84
2023-04-14T16:56:29.187Z,99881.44
2023-04-14T16:59:14.816Z,99891.59
2023-04-14T17:02:02.046Z,99901.50
2023-04-14T17:04:29.596Z,99903.91
2023-04-14T17:06:56.881Z,99906.47
2023-04-14T17:09:24.130Z,99906.59
2023-04-14T17:11:52.149Z,99904.75
2023-04-14T17:14:19.852Z,99902.81
2023-04-14T17:16:47.095Z,99914.91
2023-04-14T17:19:14.662Z,99910.00
2023-04-14T17:21:41.801Z,99906.88
2023-04-14T17:24:27.729Z,99919.25
2023-04-14T17:26:55.842Z,99907.91
2023-04-14T17:29:25.815Z,99917.03
2023-04-14T17:31:53.283Z,99922.00
2023-04-14T17:34:20.759Z,99925.97
2023-04-14T17:36:52.031Z,99936.53
2023-04-14T17:39:22.449Z,99920.22
2023-04-14T17:41:49.531Z,99931.41
2023-04-14T17:44:16.769Z,99912.81
2023-04-14T17:46:46.820Z,99930.53
2023-04-14T17:49:35.373Z,99937.09
2023-04-14T17:52:17.198Z,99910.78
2023-04-14T17:54:45.893Z,99941.19
2023-04-14T17:57:13.974Z,99935.66
2023-04-14T17:59:41.839Z,99937.56
2023-04-14T18:02:59.335Z,99957.75
2023-04-14T18:05:26.480Z,99940.03
2023-04-14T18:08:34.414Z,99950.50
2023-04-14T18:11:01.640Z,99951.41
2023-04-14T18:13:54.401Z,99946.97
2023-04-14T18:16:30.948Z,99938.56
2023-04-14T18:18:59.910Z,99948.28
2023-04-14T18:21:46.947Z,99960.25
2023-04-14T18:28:02.817Z,99960.13
2023-04-14T18:29:52.510Z,99967.00
2023-04-14T18:32:19.783Z,99960.34
2023-04-14T18:34:49.319Z,99960.53
2023-04-14T18:37:16.173Z,99958.41
2023-04-14T18:39:50.898Z,99967.91
2023-04-14T18:42:18.287Z,99957.13
2023-04-14T18:44:45.864Z,99981.97
2023-04-14T18:47:31.626Z,99952.00
2023-04-14T18:50:20.448Z,99972.50
2023-04-14T18:53:05.964Z,99960.88
2023-04-14T18:55:41.778Z,99977.53
2023-04-14T18:58:14.331Z,99981.84
2023-04-14T19:00:43.181Z,99969.22
2023-04-14T19:03:11.341Z,99973.06
2023-04-14T19:05:38.435Z,99989.59
2023-04-14T19:08:06.303Z,99989.63
2023-04-14T19:10:54.896Z,99979.66
2023-04-14T19:13:22.319Z,99985.31
2023-04-14T19:15:52.763Z,99991.31
2023-04-14T19:18:20.455Z,100001.81
2023-04-14T19:20:48.645Z,99986.03
2023-04-14T19:23:15.649Z,99992.84
2023-04-14T19:25:42.837Z,99986.38
2023-04-14T19:28:16.711Z,99994.16
2023-04-14T19:30:45.908Z,100011.34
2023-04-14T19:33:16.056Z,100008.34
2023-04-14T19:35:46.045Z,100008.69
2023-04-14T19:38:13.144Z,100011.03
2023-04-14T19:40:51.119Z,100011.38
2023-04-14T19:43:23.639Z,100015.88
2023-04-14T19:45:51.601Z,100019.84
2023-04-14T19:48:23.355Z,100008.19
2023-04-14T19:50:52.206Z,100011.34
2023-04-14T19:53:20.180Z,100020.03
2023-04-14T19:55:51.371Z,100017.84
2023-04-14T19:58:21.833Z,100014.69
2023-04-14T20:00:51.699Z,100020.50
2023-04-14T20:03:19.651Z,100026.19
2023-04-14T20:05:55.005Z,100025.00
2023-04-14T20:08:22.889Z,100045.16
2023-04-14T20:10:54.337Z,100043.97
2023-04-14T20:13:22.768Z,100046.94
2023-04-14T20:15:50.828Z,100057.25
2023-04-14T20:18:18.083Z,100057.44
2023-04-14T20:20:49.201Z,100059.25
2023-04-14T20:23:16.145Z,100065.91
2023-04-14T20:25:44.085Z,100064.22
2023-04-14T20:28:11.190Z,100068.72
2023-04-14T20:30:43.180Z,100071.53
2023-04-14T20:33:10.635Z,100074.84
2023-04-14T20:35:39.786Z,100074.19
2023-04-14T20:38:07.664Z,100068.97
2023-04-14T20:40:37.825Z,100077.16
2023-04-14T20:43:06.107Z,100085.28
2023-04-14T20:45:34.108Z,100081.28
2023-04-14T20:48:04.053Z,100090.41
2023-04-14T20:50:31.063Z,100092.72
2023-04-14T20:52:58.601Z,100103.88
2023-04-14T20:55:26.244Z,100099.56
2023-04-14T20:57:56.455Z,100106.03
2023-04-14T21:00:29.204Z,100098.66
2023-04-14T21:02:56.418Z,100102.00
2023-04-14T21:05:25.705Z,100105.28
2023-04-14T21:07:52.772Z,100103.59
2023-04-14T21:10:19.689Z,100117.22
2023-04-14T21:15:06.468Z,100123.81
2023-04-14T21:15:55.615Z,100107.16
2023-04-14T21:18:23.358Z,100117.47
2023-04-14T21:20:51.407Z,100134.25
2023-04-14T21:23:20.338Z,100129.78
2023-04-14T21:25:48.147Z,100122.59
2023-04-14T21:28:15.541Z,100140.06
2023-04-14T21:30:42.814Z,100135.72
2023-04-14T21:33:09.976Z,100134.66
2023-04-14T21:35:37.836Z,100138.63
2023-04-14T21:38:04.780Z,100145.94
2023-04-14T21:40:31.650Z,100147.91
2023-04-14T21:42:58.545Z,100151.69
2023-04-14T21:45:26.734Z,100158.84
2023-04-14T21:47:53.817Z,100156.66
2023-04-14T21:50:20.939Z,100163.94
2023-04-14T21:52:47.828Z,100168.41
2023-04-14T21:55:14.906Z,100172.66
2023-04-14T21:57:44.553Z,100173.28
2023-04-14T22:00:17.895Z,100169.25
2023-04-14T22:02:45.785Z,100176.47
2023-04-14T22:05:13.930Z,100187.41
2023-04-14T22:07:41.417Z,100175.41
2023-04-14T22:10:08.800Z,100181.41
2023-04-14T22:12:39.960Z,100175.41
2023-04-14T22:15:10.806Z,100174.75
2023-04-14T22:17:38.971Z,100181.84
2023-04-14T22:20:06.634Z,100187.91
2023-04-14T22:22:36.366Z,100185.03
2023-04-14T22:25:04.249Z,100186.19
2023-04-14T22:27:33.999Z,100194.59
2023-04-14T22:30:04.038Z,100186.44
2023-04-14T22:32:35.076Z,100196.41
2023-04-14T22:35:02.089Z,100200.72
2023-04-14T22:37:30.230Z,100193.06
2023-04-14T22:39:57.175Z,100197.97
2023-04-14T22:42:24.188Z,100200.38
2023-04-14T22:44:53.069Z,100203.09
2023-04-14T22:47:20.569Z,100202.69
2023-04-14T22:49:47.532Z,100208.88
2023-04-14T22:52:14.642Z,100205.06
2023-04-14T22:54:41.763Z,100215.00
2023-04-14T22:57:10.443Z,100209.56
2023-04-14T22:59:37.844Z,100210.69
2023-04-14T23:02:05.157Z,100215.34
2023-04-14T23:04:32.702Z,100221.78
2023-04-14T23:06:59.733Z,100219.97
2023-04-14T23:09:32.460Z,100220.84
2023-04-14T23:12:03.174Z,100229.78
2023-04-14T23:14:32.546Z,100228.78
2023-04-14T23:17:00.125Z,100236.75
2023-04-14T23:19:27.539Z,100246.81
2023-04-14T23:21:54.430Z,100239.28
2023-04-14T23:24:22.536Z,100241.53
2023-04-14T23:26:49.564Z,100252.72
2023-04-14T23:29:20.166Z,100244.19
2023-04-14T23:31:47.223Z,100253.28
2023-04-14T23:34:14.302Z,100254.38
2023-04-14T23:36:41.814Z,100254.69
2023-04-14T23:39:08.713Z,100262.63
2023-04-14T23:41:36.744Z,100263.06
2023-04-14T23:44:03.787Z,100258.47
2023-04-14T23:46:30.731Z,100266.72
2023-04-14T23:49:02.913Z,100269.78
2023-04-14T23:51:45.187Z,100272.00
2023-04-14T23:54:12.217Z,100271.47
2023-04-14T23:56:39.596Z,100285.38
2023-04-14T23:59:06.614Z,100273.97
